Time,TemperatureF,DewpointF,PressureIn,WindDirection,WindDirectionDegrees,WindSpeedMPH,WindSpeedGustMPH,Humidity,HourlyPrecipIn,Conditions,Clouds,dailyrainin,SoftwareType,DateUTC
2013-05-03 00:02:00,63.7,62.8,29.82,North,0,6.0,6.0,97,0.02,BKN,,0.44,WeatherDisplay:10.37,2013-05-02 22:02:00,
2013-05-03 00:07:00,63.7,62.8,29.82,North,0,6.0,6.0,97,0.01,BKN,,0.44,WeatherDisplay:10.37,2013-05-02 22:07:00,
2013-05-03 00:12:00,63.3,62.5,29.83,East,90,5.8,5.8,97,0.00,BKN,,0.44,WeatherDisplay:10.37,2013-05-02 22:12:00,
2013-05-03 00:17:00,63.0,62.1,29.83,NE,45,3.5,3.5,97,0.00,CLR,BKN,0.44,WeatherDisplay:10.37,2013-05-02 22:17:00,
2013-05-03 00:22:00,63.0,62.1,29.83,East,90,3.1,3.1,97,0.00,CLR,BKN,0.44,WeatherDisplay:10.37,2013-05-02 22:22:00,
2013-05-03 00:27:00,63.0,62.1,29.83,East,90,3.8,3.8,97,0.00,CLR,BKN,0.44,WeatherDisplay:10.37,2013-05-02 22:27:00,
2013-05-03 00:32:00,63.0,62.1,29.83,East,90,5.8,5.8,97,0.00,CLR,BKN,0.44,WeatherDisplay:10.37,2013-05-02 22:32:00,
2013-05-03 00:37:00,63.0,62.1,29.84,SE,135,5.8,5.8,97,0.00,CLR,BKN,0.44,WeatherDisplay:10.37,2013-05-02 22:37:00,
2013-05-03 00:42:00,63.0,62.1,29.85,ESE,112,6.0,6.0,97,0.00,CLR,BKN,0.44,WeatherDisplay:10.37,2013-05-02 22:42:00,
2013-05-03 00:47:00,63.0,62.1,29.84,SE,135,8.1,8.1,97,0.00,CLR,BKN,0.44,WeatherDisplay:10.37,2013-05-02 22:47:00,
2013-05-03 00:52:00,62.8,61.9,29.84,East,90,5.8,5.8,97,0.00,CLR,BKN,0.44,WeatherDisplay:10.37,2013-05-02 22:52:00,
2013-05-03 00:57:00,62.8,61.9,29.84,SE,135,6.9,6.9,97,0.00,CLR,BKN,0.44,WeatherDisplay:10.37,2013-05-02 22:57:00,
2013-05-03 01:02:00,62.8,61.9,29.85,ESE,112,5.8,5.8,97,0.00,CLR,BKN,0.44,WeatherDisplay:10.37,2013-05-02 23:02:00,
2013-05-03 01:07:00,62.6,61.7,29.85,NE,45,4.6,4.6,97,0.00,CLR,BKN,0.44,WeatherDisplay:10.37,2013-05-02 23:07:00,
2013-05-03 01:12:00,62.6,61.7,29.85,East,90,5.8,5.8,97,0.00,CLR,BKN,0.44,WeatherDisplay:10.37,2013-05-02 23:12:00,
2013-05-03 01:17:00,62.4,61.8,29.85,NE,45,3.5,3.5,98,0.00,CLR,BKN,0.44,WeatherDisplay:10.37,2013-05-02 23:17:00,
2013-05-03 01:22:00,62.4,61.8,29.85,North,0,3.1,3.1,98,0.00,CLR,BKN,0.44,WeatherDisplay:10.37,2013-05-02 23:22:00,
2013-05-03 01:27:00,62.2,61.7,29.85,North,0,2.3,2.3,98,0.00,CLR,BKN,0.44,WeatherDisplay:10.37,2013-05-02 23:27:00,
2013-05-03 01:32:00,62.2,61.7,29.85,NW,315,2.3,2.3,98,0.00,CLR,BKN,0.44,WeatherDisplay:10.37,2013-05-02 23:32:00,
2013-05-03 01:37:00,62.2,61.7,29.85,North,0,3.5,3.5,98,0.00,CLR,BKN,0.44,WeatherDisplay:10.37,2013-05-02 23:37:00,
2013-05-03 01:42:00,62.2,61.7,29.85,NW,315,3.5,3.5,98,0.00,CLR,BKN,0.44,WeatherDisplay:10.37,2013-05-02 23:42:00,
2013-05-03 01:48:00,62.1,61.5,29.86,NNW,338,2.3,0.0,98,0.00,CLR,BKN,0.44,WeatherDisplay:10.37,2013-05-02 23:48:00,
2013-05-03 01:53:00,61.9,61.3,29.86,NE,45,1.6,1.6,98,0.00,CLR,BKN,0.44,WeatherDisplay:10.37,2013-05-02 23:53:00,
2013-05-03 01:58:00,61.9,61.3,29.85,North,0,3.5,3.5,98,0.00,CLR,BKN,0.44,WeatherDisplay:10.37,2013-05-02 23:58:00,
2013-05-03 02:03:00,61.7,61.1,29.85,North,0,1.6,1.6,98,0.00,CLR,BKN,0.44,WeatherDisplay:10.37,2013-05-03 00:03:00,
2013-05-03 02:08:00,61.7,61.1,29.85,North,0,1.2,0.0,98,0.00,CLR,BKN,0.44,WeatherDisplay:10.37,2013-05-03 00:08:00,
2013-05-03 02:13:00,61.7,61.1,29.85,NW,315,3.1,3.1,98,0.00,CLR,BKN,0.44,WeatherDisplay:10.37,2013-05-03 00:13:00,
2013-05-03 02:18:00,61.7,60.8,29.85,North,0,3.5,3.5,97,0.00,CLR,BKN,0.44,WeatherDisplay:10.37,2013-05-03 00:18:00,
2013-05-03 02:23:00,61.7,60.8,29.85,North,0,5.4,5.4,97,0.00,CLR,BKN,0.44,WeatherDisplay:10.37,2013-05-03 00:23:00,
2013-05-03 02:28:00,61.5,60.7,29.85,North,0,4.6,0.0,97,0.00,CLR,BKN,0.44,WeatherDisplay:10.37,2013-05-03 00:28:00,
2013-05-03 02:33:00,61.5,61.0,29.85,NW,315,5.8,5.8,98,0.00,CLR,BKN,0.44,WeatherDisplay:10.37,2013-05-03 00:33:00,
2013-05-03 02:38:00,61.5,61.0,29.85,NNW,338,4.6,4.6,98,0.00,CLR,BKN,0.44,WeatherDisplay:10.37,2013-05-03 00:38:00,
2013-05-03 02:43:00,61.5,61.0,29.85,NW,315,4.6,4.6,98,0.00,CLR,BKN,0.44,WeatherDisplay:10.37,2013-05-03 00:43:00,
2013-05-03 02:48:00,61.3,60.8,29.84,NW,315,3.5,0.0,98,0.00,CLR,BKN,0.44,WeatherDisplay:10.37,2013-05-03 00:48:00,
2013-05-03 02:53:00,61.3,60.8,29.85,NW,315,1.2,0.0,98,0.00,CLR,BKN,0.44,WeatherDisplay:10.37,2013-05-03 00:53:00,
2013-05-03 02:58:00,61.3,60.8,29.85,SE,135,1.2,0.0,98,0.00,CLR,BKN,0.44,WeatherDisplay:10.37,2013-05-03 00:58:00,
2013-05-03 03:03:00,61.3,60.8,29.85,NE,45,2.3,2.3,98,0.00,CLR,BKN,0.44,WeatherDisplay:10.37,2013-05-03 01:03:00,
2013-05-03 03:08:00,61.3,60.8,29.85,East,90,2.3,2.3,98,0.00,CLR,BKN,0.44,WeatherDisplay:10.37,2013-05-03 01:08:00,
2013-05-03 03:13:00,61.2,60.6,29.84,North,0,1.2,0.0,98,0.00,CLR,BKN,0.44,WeatherDisplay:10.37,2013-05-03 01:13:00,
2013-05-03 03:18:00,61.2,60.6,29.85,North,0,1.2,0.0,98,0.00,CLR,BKN,0.44,WeatherDisplay:10.37,2013-05-03 01:18:00,
2013-05-03 03:23:00,61.0,60.4,29.84,North,0,1.2,0.0,98,0.00,CLR,BKN,0.44,WeatherDisplay:10.37,2013-05-03 01:23:00,
2013-05-03 03:28:00,61.0,60.4,29.84,North,0,0.0,0.0,98,0.00,CLR,BKN,0.44,WeatherDisplay:10.37,2013-05-03 01:28:00,
2013-05-03 03:33:00,61.0,60.4,29.84,ENE,68,1.6,1.6,98,0.00,CLR,BKN,0.44,WeatherDisplay:10.37,2013-05-03 01:33:00,
2013-05-03 03:38:00,61.0,60.4,29.84,NE,45,3.5,3.5,98,0.00,CLR,BKN,0.44,WeatherDisplay:10.37,2013-05-03 01:38:00,
2013-05-03 03:43:00,61.0,60.4,29.84,NNE,22,2.3,2.3,98,0.00,CLR,BKN,0.44,WeatherDisplay:10.37,2013-05-03 01:43:00,
2013-05-03 03:48:00,60.8,60.2,29.84,North,0,2.3,0.0,98,0.00,-RA,BKN,0.44,WeatherDisplay:10.37,2013-05-03 01:48:00,
2013-05-03 03:53:00,60.8,60.2,29.84,NE,45,3.5,3.5,98,0.00,-RA,BKN,0.44,WeatherDisplay:10.37,2013-05-03 01:53:00,
2013-05-03 03:58:00,60.8,60.2,29.84,North,0,1.2,0.0,98,0.00,-RA,BKN,0.44,WeatherDisplay:10.37,2013-05-03 01:58:00,
2013-05-03 04:03:00,60.6,60.3,29.84,North,0,5.8,0.0,99,0.00,-RA,BKN,0.44,WeatherDisplay:10.37,2013-05-03 02:03:00,
2013-05-03 04:08:00,60.6,60.3,29.84,East,90,1.2,0.0,99,0.00,-RA,BKN,0.44,WeatherDisplay:10.37,2013-05-03 02:08:00,
2013-05-03 04:13:00,60.6,60.3,29.84,NE,45,1.2,0.0,99,0.00,-RA,BKN,0.44,WeatherDisplay:10.37,2013-05-03 02:13:00,
2013-05-03 04:18:00,60.6,60.3,29.84,NE,45,1.6,1.6,99,0.00,-RA,BKN,0.44,WeatherDisplay:10.37,2013-05-03 02:18:00,
2013-05-03 04:23:00,60.6,60.3,29.84,NE,45,1.2,0.0,99,0.00,-RA,BKN,0.44,WeatherDisplay:10.37,2013-05-03 02:23:00,
2013-05-03 04:28:00,60.6,60.3,29.84,NE,45,1.6,0.0,99,0.00,-RA,BKN,0.44,WeatherDisplay:10.37,2013-05-03 02:28:00,
2013-05-03 04:33:00,60.6,60.3,29.84,North,0,1.2,0.0,99,0.00,-RA,BKN,0.44,WeatherDisplay:10.37,2013-05-03 02:33:00,
2013-05-03 04:38:00,60.6,60.3,29.83,NE,45,2.3,2.3,99,0.00,-RA,BKN,0.44,WeatherDisplay:10.37,2013-05-03 02:38:00,
2013-05-03 04:43:00,60.6,60.3,29.83,NE,45,3.5,3.5,99,0.00,-RA,BKN,0.44,WeatherDisplay:10.37,2013-05-03 02:43:00,
2013-05-03 04:48:00,60.6,60.3,29.82,North,0,3.5,3.5,99,0.00,-RA,BKN,0.44,WeatherDisplay:10.37,2013-05-03 02:48:00,
2013-05-03 04:53:00,60.6,60.3,29.82,North,0,3.5,3.5,99,0.00,-RA,BKN,0.44,WeatherDisplay:10.37,2013-05-03 02:53:00,
2013-05-03 04:58:00,60.6,60.3,29.82,North,0,2.3,2.3,99,0.00,-RA,BKN,0.44,WeatherDisplay:10.37,2013-05-03 02:58:00,
2013-05-03 05:03:00,60.6,60.3,29.82,North,0,3.8,3.8,99,0.00,-RA,BKN,0.44,WeatherDisplay:10.37,2013-05-03 03:03:00,
2013-05-03 05:08:00,60.4,60.2,29.82,NE,45,3.5,3.5,99,0.00,-RA,BKN,0.44,WeatherDisplay:10.37,2013-05-03 03:08:00,
2013-05-03 05:13:00,60.3,60.0,29.82,NE,45,2.3,2.3,99,0.00,-RA,BKN,0.44,WeatherDisplay:10.37,2013-05-03 03:13:00,
2013-05-03 05:18:00,60.1,59.8,29.82,NE,45,3.5,3.5,99,0.00,CLR,BKN,0.44,WeatherDisplay:10.37,2013-05-03 03:18:00,
2013-05-03 05:23:00,60.1,59.8,29.81,NE,45,3.5,3.5,99,0.00,CLR,BKN,0.44,WeatherDisplay:10.37,2013-05-03 03:23:00,
2013-05-03 05:28:00,60.1,59.8,29.81,NNE,22,4.6,4.6,99,0.00,CLR,BKN,0.44,WeatherDisplay:10.37,2013-05-03 03:28:00,
2013-05-03 05:33:00,60.1,59.8,29.81,North,0,3.5,0.0,99,0.00,CLR,BKN,0.44,WeatherDisplay:10.37,2013-05-03 03:33:00,
2013-05-03 05:38:00,59.9,59.6,29.81,North,0,3.5,3.5,99,0.00,CLR,BKN,0.44,WeatherDisplay:10.37,2013-05-03 03:38:00,
2013-05-03 05:43:00,59.9,59.6,29.81,NW,315,3.8,3.8,99,0.00,CLR,BKN,0.44,WeatherDisplay:10.37,2013-05-03 03:43:00,
2013-05-03 05:48:00,59.9,59.6,29.81,North,0,4.6,4.6,99,0.00,CLR,BKN,0.44,WeatherDisplay:10.37,2013-05-03 03:48:00,
2013-05-03 05:53:00,59.9,59.6,29.81,NW,315,4.6,4.6,99,0.00,CLR,BKN,0.44,WeatherDisplay:10.37,2013-05-03 03:53:00,
2013-05-03 05:58:00,59.9,59.6,29.82,NW,315,3.8,3.8,99,0.00,CLR,BKN,0.44,WeatherDisplay:10.37,2013-05-03 03:58:00,
2013-05-03 06:01:00,59.9,59.6,29.82,NNW,338,4.6,4.6,99,0.00,CLR,BKN,0.44,WeatherDisplay:10.37,2013-05-03 04:01:00,
2013-05-03 06:05:00,59.9,59.6,29.82,NNW,327,1.0,4.0,99,0.00,CLR,BKN,0.44,WeatherDisplay:10.37,2013-05-03 04:05:00,
2013-05-03 06:06:00,59.9,59.6,29.82,West,270,3.5,0.0,99,0.00,CLR,BKN,0.44,WeatherDisplay:10.37,2013-05-03 04:06:00,
2013-05-03 06:11:00,59.9,59.6,29.83,West,270,1.2,0.0,99,0.00,CLR,BKN,0.44,WeatherDisplay:10.37,2013-05-03 04:11:00,
2013-05-03 06:15:00,59.9,59.6,29.83,NW,317,0.0,2.0,99,0.00,CLR,BKN,0.44,WeatherDisplay:10.37,2013-05-03 04:15:00,
2013-05-03 06:20:00,59.9,59.6,29.83,NW,313,0.0,2.0,99,0.00,CLR,BKN,0.44,WeatherDisplay:10.37,2013-05-03 04:20:00,
2013-05-03 06:25:00,60.1,59.8,29.83,NW,311,1.0,2.0,99,0.00,CLR,BKN,0.44,WeatherDisplay:10.37,2013-05-03 04:25:00,
2013-05-03 06:30:00,60.1,59.8,29.83,NNW,343,1.0,4.0,99,0.00,CLR,BKN,0.44,WeatherDisplay:10.37,2013-05-03 04:30:00,
2013-05-03 06:35:00,60.4,60.2,29.83,NW,315,4.5,4.5,99,0.00,CLR,BKN,0.44,WeatherDisplay:10.37,2013-05-03 04:35:00,
2013-05-03 06:40:00,60.8,60.2,29.83,East,90,3.5,3.5,98,0.00,CLR,BKN,0.44,WeatherDisplay:10.37,2013-05-03 04:40:00,
2013-05-03 06:45:00,61.2,60.6,29.83,North,0,3.8,3.8,98,0.00,CLR,BKN,0.44,WeatherDisplay:10.37,2013-05-03 04:45:00,
2013-05-03 06:50:00,61.3,60.8,29.83,North,0,3.8,3.8,98,0.00,CLR,BKN,0.44,WeatherDisplay:10.37,2013-05-03 04:50:00,
2013-05-03 06:55:00,61.5,61.0,29.83,NE,45,3.5,3.5,98,0.00,CLR,BKN,0.44,WeatherDisplay:10.37,2013-05-03 04:55:00,
2013-05-03 07:00:00,61.7,61.1,29.83,North,0,3.8,3.8,98,0.00,CLR,BKN,0.44,WeatherDisplay:10.37,2013-05-03 05:00:00,
2013-05-03 07:05:00,62.1,61.5,29.83,West,270,4.6,4.6,98,0.00,CLR,BKN,0.44,WeatherDisplay:10.37,2013-05-03 05:05:00,
2013-05-03 07:10:00,62.2,61.7,29.83,NW,315,4.6,4.6,98,0.00,CLR,BKN,0.44,WeatherDisplay:10.37,2013-05-03 05:10:00,
2013-05-03 07:15:00,62.2,61.7,29.83,NW,315,3.8,3.8,98,0.00,CLR,BKN,0.44,WeatherDisplay:10.37,2013-05-03 05:15:00,
2013-05-03 07:20:00,62.6,61.7,29.83,NW,315,3.5,3.5,97,0.00,SCT,BKN,0.44,WeatherDisplay:10.37,2013-05-03 05:20:00,
2013-05-03 07:25:00,62.6,61.7,29.83,West,270,3.5,3.5,97,0.00,SCT,BKN,0.44,WeatherDisplay:10.37,2013-05-03 05:25:00,
2013-05-03 07:30:00,62.8,61.9,29.84,NW,315,3.8,3.8,97,0.00,SCT,BKN,0.44,WeatherDisplay:10.37,2013-05-03 05:30:00,
2013-05-03 07:35:00,62.8,61.9,29.83,West,270,4.6,4.6,97,0.00,SCT,BKN,0.44,WeatherDisplay:10.37,2013-05-03 05:35:00,
2013-05-03 07:40:00,63.3,62.5,29.83,SW,225,5.8,5.8,97,0.00,SCT,BKN,0.44,WeatherDisplay:10.37,2013-05-03 05:40:00,
2013-05-03 07:45:00,63.5,62.6,29.83,NW,315,5.8,5.8,97,0.00,SCT,BKN,0.44,WeatherDisplay:10.37,2013-05-03 05:45:00,
2013-05-03 07:50:00,63.7,62.8,29.84,North,0,3.5,3.5,97,0.00,SCT,BKN,0.44,WeatherDisplay:10.37,2013-05-03 05:50:00,
2013-05-03 07:55:00,63.9,62.7,29.83,North,0,5.8,5.8,96,0.00,SCT,BKN,0.44,WeatherDisplay:10.37,2013-05-03 05:55:00,
2013-05-03 08:00:00,64.0,62.9,29.83,North,0,5.8,5.8,96,0.01,RA,BKN,0.00,WeatherDisplay:10.37,2013-05-03 06:00:00,
2013-05-03 08:05:00,64.0,62.6,29.83,NW,315,6.9,6.9,95,0.01,RA,BKN,0.00,WeatherDisplay:10.37,2013-05-03 06:05:00,
2013-05-03 08:10:00,64.2,62.8,29.83,North,0,5.8,5.8,95,0.01,SCT,BKN,0.00,WeatherDisplay:10.37,2013-05-03 06:10:00,
2013-05-03 08:15:00,64.6,63.1,29.83,NW,315,6.9,6.9,95,0.01,SCT,BKN,0.00,WeatherDisplay:10.37,2013-05-03 06:15:00,
2013-05-03 08:20:00,64.6,62.8,29.82,NE,45,6.9,6.9,94,0.01,SCT,BKN,0.00,WeatherDisplay:10.37,2013-05-03 06:20:00,
2013-05-03 08:25:00,64.9,63.2,29.83,NW,315,6.9,6.9,94,0.01,SCT,BKN,0.00,WeatherDisplay:10.37,2013-05-03 06:25:00,
2013-05-03 08:30:00,65.5,63.7,29.82,North,0,9.2,9.2,94,0.01,SCT,BKN,0.00,WeatherDisplay:10.37,2013-05-03 06:30:00,
2013-05-03 08:35:00,65.8,63.8,29.82,West,270,8.1,8.1,93,0.01,SCT,BKN,0.00,WeatherDisplay:10.37,2013-05-03 06:35:00,
2013-05-03 08:40:00,66.2,63.5,29.82,North,0,10.4,10.4,91,0.01,SCT,BKN,0.00,WeatherDisplay:10.37,2013-05-03 06:40:00,
2013-05-03 08:45:00,66.6,63.5,29.82,NNW,338,6.9,6.9,90,0.01,SCT,BKN,0.00,WeatherDisplay:10.37,2013-05-03 06:45:00,
2013-05-03 08:50:00,66.7,63.4,29.82,North,0,3.8,3.8,89,0.01,SCT,BKN,0.00,WeatherDisplay:10.37,2013-05-03 06:50:00,
2013-05-03 08:55:00,67.1,63.4,29.82,NE,45,5.8,5.8,88,0.01,SCT,BKN,0.00,WeatherDisplay:10.37,2013-05-03 06:55:00,
2013-05-03 09:00:00,67.3,63.3,29.82,North,0,5.8,5.8,87,0.00,SCT,BKN,0.00,WeatherDisplay:10.37,2013-05-03 07:00:00,
2013-05-03 09:05:00,67.8,63.8,29.83,NE,45,8.3,8.3,87,0.00,SCT,BKN,0.00,WeatherDisplay:10.37,2013-05-03 07:05:00,
2013-05-03 09:10:00,67.8,63.1,29.82,NE,45,6.0,6.0,85,0.00,SCT,BKN,0.00,WeatherDisplay:10.37,2013-05-03 07:10:00,
2013-05-03 09:15:00,68.2,63.2,29.82,NE,45,8.1,8.1,84,0.00,SCT,BKN,0.00,WeatherDisplay:10.37,2013-05-03 07:15:00,
2013-05-03 09:20:00,68.5,63.2,29.82,NE,45,6.0,6.0,83,0.00,SCT,BKN,0.00,WeatherDisplay:10.37,2013-05-03 07:20:00,
2013-05-03 09:25:00,68.9,63.2,29.82,East,90,9.2,9.2,82,0.00,SCT,BKN,0.00,WeatherDisplay:10.37,2013-05-03 07:25:00,
2013-05-03 09:30:00,69.1,63.4,29.82,North,0,5.8,5.8,82,0.00,SCT,BKN,0.00,WeatherDisplay:10.37,2013-05-03 07:30:00,
2013-05-03 09:35:00,69.3,63.5,29.82,NW,315,8.1,8.1,82,0.00,SCT,BKN,0.00,WeatherDisplay:10.37,2013-05-03 07:35:00,
2013-05-03 09:40:00,69.4,63.4,29.81,North,0,9.2,9.2,81,0.00,SCT,BKN,0.00,WeatherDisplay:10.37,2013-05-03 07:40:00,
2013-05-03 09:45:00,69.6,63.5,29.81,NE,45,5.4,5.4,81,0.00,SCT,BKN,0.00,WeatherDisplay:10.37,2013-05-03 07:45:00,
2013-05-03 09:50:00,70.0,63.5,29.81,North,0,8.1,8.1,80,0.00,SCT,BKN,0.00,WeatherDisplay:10.37,2013-05-03 07:50:00,
2013-05-03 09:55:00,70.2,63.7,29.81,East,90,6.9,6.9,80,0.00,SCT,BKN,0.00,WeatherDisplay:10.37,2013-05-03 07:55:00,
2013-05-03 10:00:00,70.5,63.7,29.81,NE,45,8.1,8.1,79,0.00,SCT,BKN,0.00,WeatherDisplay:10.37,2013-05-03 08:00:00,
2013-05-03 10:05:00,70.9,64.0,29.81,NE,45,6.9,6.9,79,0.00,SCT,BKN,0.00,WeatherDisplay:10.37,2013-05-03 08:05:00,
2013-05-03 10:10:00,71.1,63.9,29.81,East,90,6.9,6.9,78,0.00,SCT,BKN,0.00,WeatherDisplay:10.37,2013-05-03 08:10:00,
2013-05-03 10:15:00,71.1,64.2,29.82,NNE,22,5.8,5.8,79,0.00,SCT,BKN,0.00,WeatherDisplay:10.37,2013-05-03 08:15:00,
2013-05-03 10:20:00,70.9,63.7,29.82,East,90,5.8,5.8,78,0.00,SCT,BKN,0.00,WeatherDisplay:10.37,2013-05-03 08:20:00,
2013-05-03 10:25:00,70.7,63.1,29.82,South,180,3.5,0.0,77,0.00,SCT,BKN,0.00,WeatherDisplay:10.37,2013-05-03 08:25:00,
2013-05-03 10:30:00,70.9,63.3,29.82,East,90,3.5,3.5,77,0.00,SCT,BKN,0.00,WeatherDisplay:10.37,2013-05-03 08:30:00,
2013-05-03 10:35:00,71.6,64.0,29.82,NW,315,8.1,8.1,77,0.00,SCT,BKN,0.00,WeatherDisplay:10.37,2013-05-03 08:35:00,
2013-05-03 10:40:00,71.4,64.2,29.82,NW,315,5.8,5.8,78,0.00,SCT,BKN,0.00,WeatherDisplay:10.37,2013-05-03 08:40:00,
2013-05-03 10:45:00,71.4,64.2,29.82,NW,315,5.8,5.8,78,0.00,SCT,BKN,0.00,WeatherDisplay:10.37,2013-05-03 08:45:00,
2013-05-03 10:50:00,71.4,64.2,29.82,West,270,5.8,5.8,78,0.00,BKN,,0.00,WeatherDisplay:10.37,2013-05-03 08:50:00,
2013-05-03 10:55:00,71.8,63.8,29.82,NW,315,5.8,5.8,76,0.00,BKN,,0.00,WeatherDisplay:10.37,2013-05-03 08:55:00,
2013-05-03 11:00:00,72.3,64.3,29.82,NW,315,4.6,4.6,76,0.00,BKN,,0.00,WeatherDisplay:10.37,2013-05-03 09:00:00,
2013-05-03 11:05:00,72.9,64.5,29.82,North,0,5.8,5.8,75,0.00,BKN,,0.00,WeatherDisplay:10.37,2013-05-03 09:05:00,
2013-05-03 11:10:00,73.6,64.8,29.82,NE,45,3.5,3.5,74,0.00,BKN,,0.00,WeatherDisplay:10.37,2013-05-03 09:10:00,
2013-05-03 11:15:00,74.5,65.3,29.82,East,90,6.0,6.0,73,0.00,BKN,,0.00,WeatherDisplay:10.37,2013-05-03 09:15:00,
2013-05-03 11:20:00,74.8,65.2,29.81,NE,45,5.4,5.4,72,0.00,SCT,BKN,0.00,WeatherDisplay:10.37,2013-05-03 09:20:00,
2013-05-03 11:25:00,74.3,63.9,29.82,SE,135,5.8,5.8,70,0.00,SCT,BKN,0.00,WeatherDisplay:10.37,2013-05-03 09:25:00,
2013-05-03 11:30:00,73.9,63.5,29.81,SW,225,3.5,3.5,70,0.00,SCT,BKN,0.00,WeatherDisplay:10.37,2013-05-03 09:30:00,
2013-05-03 11:35:00,74.3,64.7,29.81,WNW,292,4.6,4.6,72,0.00,SCT,BKN,0.00,WeatherDisplay:10.37,2013-05-03 09:35:00,
2013-05-03 11:40:00,74.8,64.4,29.81,NNE,22,5.8,5.8,70,0.00,SCT,BKN,0.00,WeatherDisplay:10.37,2013-05-03 09:40:00,
2013-05-03 11:45:00,74.5,63.2,29.81,North,0,3.8,3.8,68,0.00,SCT,BKN,0.00,WeatherDisplay:10.37,2013-05-03 09:45:00,
2013-05-03 11:50:00,74.7,63.8,29.81,NW,315,9.2,9.2,69,0.00,SCT,BKN,0.00,WeatherDisplay:10.37,2013-05-03 09:50:00,
2013-05-03 11:55:00,74.5,63.2,29.81,SW,225,4.6,4.6,68,0.00,SCT,BKN,0.00,WeatherDisplay:10.37,2013-05-03 09:55:00,
2013-05-03 12:00:00,74.5,63.2,29.80,West,270,6.9,6.9,68,0.00,SCT,BKN,0.00,WeatherDisplay:10.37,2013-05-03 10:00:00,
2013-05-03 12:05:00,74.5,63.2,29.80,West,270,6.9,6.9,68,0.00,SCT,BKN,0.00,WeatherDisplay:10.37,2013-05-03 10:05:00,
2013-05-03 12:10:00,74.7,63.0,29.80,NW,315,5.8,5.8,67,0.00,SCT,BKN,0.00,WeatherDisplay:10.37,2013-05-03 10:10:00,
2013-05-03 12:15:00,74.7,63.0,29.80,West,270,5.8,5.8,67,0.00,SCT,BKN,0.00,WeatherDisplay:10.37,2013-05-03 10:15:00,
2013-05-03 12:20:00,74.8,63.1,29.79,West,270,3.5,3.5,67,0.00,SCT,BKN,0.00,WeatherDisplay:10.37,2013-05-03 10:20:00,
2013-05-03 12:25:00,75.2,63.1,29.80,West,270,6.0,6.0,66,0.00,SCT,BKN,0.00,WeatherDisplay:10.37,2013-05-03 10:25:00,
2013-05-03 12:30:00,75.6,63.4,29.79,South,180,4.6,4.6,66,0.00,SCT,BKN,0.00,WeatherDisplay:10.37,2013-05-03 10:30:00,
2013-05-03 12:35:00,75.7,63.6,29.78,SE,135,5.8,5.8,66,0.00,SCT,BKN,0.00,WeatherDisplay:10.37,2013-05-03 10:35:00,
2013-05-03 12:40:00,75.9,63.3,29.78,East,90,4.6,4.6,65,0.00,SCT,BKN,0.00,WeatherDisplay:10.37,2013-05-03 10:40:00,
2013-05-03 12:45:00,76.1,63.5,29.78,East,90,3.5,3.5,65,0.00,SCT,BKN,0.00,WeatherDisplay:10.37,2013-05-03 10:45:00,
2013-05-03 12:50:00,76.1,63.0,29.78,SSE,158,4.6,4.6,64,0.00,BKN,,0.00,WeatherDisplay:10.37,2013-05-03 10:50:00,
2013-05-03 12:55:00,76.1,63.0,29.78,NE,45,4.6,4.6,64,0.00,BKN,,0.00,WeatherDisplay:10.37,2013-05-03 10:55:00,
2013-05-03 13:00:00,75.9,62.9,29.77,SE,135,4.5,4.5,64,0.00,BKN,,0.00,WeatherDisplay:10.37,2013-05-03 11:00:00,
2013-05-03 13:05:00,75.7,63.1,29.78,NW,315,3.5,3.5,65,0.00,BKN,,0.00,WeatherDisplay:10.37,2013-05-03 11:05:00,
2013-05-03 13:10:00,75.0,62.9,29.77,NW,315,5.8,5.8,66,0.00,BKN,,0.00,WeatherDisplay:10.37,2013-05-03 11:10:00,
2013-05-03 13:15:00,74.5,62.4,29.77,NW,315,3.5,3.5,66,0.00,BKN,,0.00,WeatherDisplay:10.37,2013-05-03 11:15:00,
2013-05-03 13:20:00,74.1,62.9,29.80,SW,225,10.4,10.4,68,0.01,RA,BKN,0.01,WeatherDisplay:10.37,2013-05-03 11:20:00,
2013-05-03 13:25:00,70.0,60.5,29.80,West,270,18.4,18.4,72,0.14,RA,BKN,0.14,WeatherDisplay:10.37,2013-05-03 11:25:00,
2013-05-03 13:30:00,64.6,58.6,29.81,NW,315,17.3,17.3,81,0.28,RA,BKN,0.32,WeatherDisplay:10.37,2013-05-03 11:30:00,
2013-05-03 13:35:00,62.6,57.7,29.80,NW,315,19.6,19.6,84,0.48,RA,BKN,0.50,WeatherDisplay:10.37,2013-05-03 11:35:00,
2013-05-03 13:40:00,61.5,57.9,29.81,SE,135,11.5,11.5,88,0.54,RA,BKN,0.54,WeatherDisplay:10.37,2013-05-03 11:40:00,
2013-05-03 13:45:00,61.0,57.7,29.81,WNW,292,3.5,3.5,89,0.54,RA,BKN,0.54,WeatherDisplay:10.37,2013-05-03 11:45:00,
2013-05-03 13:50:00,60.8,58.2,29.81,South,180,9.2,9.2,91,0.54,BKN,,0.54,WeatherDisplay:10.37,2013-05-03 11:50:00,
2013-05-03 13:55:00,61.0,58.3,29.81,NW,315,5.8,5.8,91,0.54,BKN,,0.54,WeatherDisplay:10.37,2013-05-03 11:55:00,
2013-05-03 14:00:00,60.4,58.1,29.81,NW,315,2.3,2.3,92,0.54,BKN,,0.54,WeatherDisplay:10.37,2013-05-03 12:00:00,
2013-05-03 14:05:00,60.4,58.1,29.82,NW,315,1.6,1.6,92,0.54,BKN,,0.54,WeatherDisplay:10.37,2013-05-03 12:05:00,
2013-05-03 14:10:00,60.4,58.7,29.82,NE,45,3.5,3.5,94,0.54,BKN,,0.54,WeatherDisplay:10.37,2013-05-03 12:10:00,
2013-05-03 14:15:00,60.4,58.7,29.81,NE,45,3.5,3.5,94,0.56,RA,BKN,0.56,WeatherDisplay:10.37,2013-05-03 12:15:00,
2013-05-03 14:20:00,60.4,58.7,29.81,NE,45,4.6,4.6,94,0.54,RA,BKN,0.56,WeatherDisplay:10.37,2013-05-03 12:20:00,
2013-05-03 14:25:00,60.6,58.9,29.81,North,0,2.3,2.3,94,0.41,SCT,BKN,0.56,WeatherDisplay:10.37,2013-05-03 12:25:00,
2013-05-03 14:30:00,60.6,59.2,29.81,West,270,3.8,3.8,95,0.27,SCT,BKN,0.56,WeatherDisplay:10.37,2013-05-03 12:30:00,
2013-05-03 14:35:00,60.8,59.1,29.81,NW,315,4.6,4.6,94,0.07,SCT,BKN,0.56,WeatherDisplay:10.37,2013-05-03 12:35:00,
2013-05-03 14:40:00,61.0,59.2,29.80,NW,315,3.5,3.5,94,0.01,SCT,BKN,0.56,WeatherDisplay:10.37,2013-05-03 12:40:00,
2013-05-03 14:45:00,60.8,59.1,29.80,SW,225,2.3,2.3,94,0.01,SCT,BKN,0.56,WeatherDisplay:10.37,2013-05-03 12:45:00,
2013-05-03 14:50:00,61.0,59.5,29.81,West,270,2.3,2.3,95,0.01,SCT,BKN,0.56,WeatherDisplay:10.37,2013-05-03 12:50:00,
2013-05-03 14:55:00,61.0,59.5,29.81,East,90,1.6,0.0,95,0.01,SCT,BKN,0.56,WeatherDisplay:10.37,2013-05-03 12:55:00,
2013-05-03 15:00:00,61.2,59.7,29.81,NE,45,2.3,2.3,95,0.01,SCT,BKN,0.56,WeatherDisplay:10.37,2013-05-03 13:00:00,
2013-05-03 15:05:00,61.3,59.9,29.81,SW,225,4.6,4.6,95,0.01,SCT,BKN,0.56,WeatherDisplay:10.37,2013-05-03 13:05:00,
2013-05-03 15:10:00,61.2,59.7,29.81,NW,315,2.3,2.3,95,0.01,SCT,BKN,0.56,WeatherDisplay:10.37,2013-05-03 13:10:00,
2013-05-03 15:15:00,61.3,60.2,29.80,North,0,2.3,2.3,96,0.00,SCT,BKN,0.56,WeatherDisplay:10.37,2013-05-03 13:15:00,
2013-05-03 15:20:00,61.5,60.4,29.81,West,270,2.3,2.3,96,0.00,SCT,BKN,0.56,WeatherDisplay:10.37,2013-05-03 13:20:00,
2013-05-03 15:25:00,61.5,60.4,29.81,NW,315,2.3,0.0,96,0.00,SCT,BKN,0.56,WeatherDisplay:10.37,2013-05-03 13:25:00,
2013-05-03 15:30:00,61.5,60.4,29.80,NW,315,2.3,0.0,96,0.00,SCT,BKN,0.56,WeatherDisplay:10.37,2013-05-03 13:30:00,
2013-05-03 15:35:00,61.5,60.4,29.81,South,180,2.3,2.3,96,0.00,SCT,BKN,0.56,WeatherDisplay:10.37,2013-05-03 13:35:00,
2013-05-03 15:40:00,61.9,60.7,29.81,South,180,3.5,3.5,96,0.00,SCT,BKN,0.56,WeatherDisplay:10.37,2013-05-03 13:40:00,
2013-05-03 15:45:00,62.1,60.9,29.80,South,180,3.5,3.5,96,0.00,SCT,BKN,0.56,WeatherDisplay:10.37,2013-05-03 13:45:00,
2013-05-03 15:50:00,62.4,61.6,29.80,South,180,2.3,2.3,97,0.00,SCT,BKN,0.56,WeatherDisplay:10.37,2013-05-03 13:50:00,
2013-05-03 15:55:00,62.6,61.4,29.80,SE,135,3.5,3.5,96,0.00,SCT,BKN,0.56,WeatherDisplay:10.37,2013-05-03 13:55:00,
2013-05-03 16:00:00,62.6,61.4,29.81,South,180,3.5,3.5,96,0.00,SCT,BKN,0.56,WeatherDisplay:10.37,2013-05-03 14:00:00,
2013-05-03 16:05:00,62.8,61.6,29.80,South,180,3.5,3.5,96,0.00,SCT,BKN,0.56,WeatherDisplay:10.37,2013-05-03 14:05:00,
2013-05-03 16:10:00,63.0,62.1,29.81,South,180,3.5,0.0,97,0.01,RA,BKN,0.57,WeatherDisplay:10.37,2013-05-03 14:10:00,
2013-05-03 16:15:00,63.1,62.3,29.81,SW,225,3.5,3.5,97,0.01,RA,BKN,0.57,WeatherDisplay:10.37,2013-05-03 14:15:00,
2013-05-03 16:20:00,63.3,62.5,29.81,South,180,3.5,3.5,97,0.02,RA,BKN,0.58,WeatherDisplay:10.37,2013-05-03 14:20:00,
2013-05-03 16:25:00,63.5,62.6,29.80,South,180,3.5,3.5,97,0.02,RA,BKN,0.58,WeatherDisplay:10.37,2013-05-03 14:25:00,
2013-05-03 16:30:00,63.7,62.8,29.80,South,180,4.6,4.6,97,0.02,SCT,BKN,0.58,WeatherDisplay:10.37,2013-05-03 14:30:00,
2013-05-03 16:35:00,64.2,63.4,29.80,SW,225,5.8,5.8,97,0.02,SCT,BKN,0.58,WeatherDisplay:10.37,2013-05-03 14:35:00,
2013-05-03 16:40:00,64.9,64.4,29.81,South,180,5.8,5.8,98,0.02,SCT,BKN,0.58,WeatherDisplay:10.37,2013-05-03 14:40:00,
2013-05-03 16:45:00,65.5,64.9,29.80,South,180,5.4,5.4,98,0.02,SCT,BKN,0.58,WeatherDisplay:10.37,2013-05-03 14:45:00,
2013-05-03 16:50:00,65.7,65.1,29.80,WSW,248,5.8,5.8,98,0.02,SCT,BKN,0.58,WeatherDisplay:10.37,2013-05-03 14:50:00,
2013-05-03 16:55:00,65.7,65.1,29.80,SW,225,3.5,3.5,98,0.02,SCT,BKN,0.58,WeatherDisplay:10.37,2013-05-03 14:55:00,
2013-05-03 17:00:00,66.2,65.3,29.80,SSW,202,3.8,3.8,97,0.02,SCT,BKN,0.58,WeatherDisplay:10.37,2013-05-03 15:00:00,
2013-05-03 17:05:00,66.4,65.5,29.80,SW,225,3.1,3.1,97,0.02,SCT,BKN,0.58,WeatherDisplay:10.37,2013-05-03 15:05:00,
2013-05-03 17:10:00,66.9,66.3,29.80,SSW,202,3.5,3.5,98,0.01,SCT,BKN,0.58,WeatherDisplay:10.37,2013-05-03 15:10:00,
2013-05-03 17:15:00,67.1,66.2,29.80,NW,315,3.5,0.0,97,0.01,SCT,BKN,0.58,WeatherDisplay:10.37,2013-05-03 15:15:00,
2013-05-03 17:20:00,67.3,66.4,29.80,South,180,3.5,3.5,97,0.00,SCT,BKN,0.58,WeatherDisplay:10.37,2013-05-03 15:20:00,
2013-05-03 17:25:00,67.3,66.1,29.80,West,270,2.3,2.3,96,0.00,SCT,BKN,0.58,WeatherDisplay:10.37,2013-05-03 15:25:00,
2013-05-03 17:30:00,67.3,65.8,29.80,SW,225,3.5,3.5,95,0.00,SCT,BKN,0.58,WeatherDisplay:10.37,2013-05-03 15:30:00,
2013-05-03 17:35:00,67.3,65.5,29.81,West,270,3.5,3.5,94,0.00,SCT,BKN,0.58,WeatherDisplay:10.37,2013-05-03 15:35:00,
2013-05-03 17:40:00,67.1,65.3,29.80,West,270,3.5,3.5,94,0.00,SCT,BKN,0.58,WeatherDisplay:10.37,2013-05-03 15:40:00,
2013-05-03 17:45:00,66.9,64.8,29.81,SW,225,2.3,2.3,93,0.00,SCT,BKN,0.58,WeatherDisplay:10.37,2013-05-03 15:45:00,
2013-05-03 17:50:00,66.9,64.8,29.81,West,270,4.6,4.6,93,0.00,SCT,BKN,0.58,WeatherDisplay:10.37,2013-05-03 15:50:00,
2013-05-03 17:55:00,66.9,64.8,29.80,NW,315,6.9,6.9,93,0.00,SCT,BKN,0.58,WeatherDisplay:10.37,2013-05-03 15:55:00,
2013-05-03 18:00:00,66.7,64.3,29.81,West,270,6.9,6.9,92,0.00,SCT,BKN,0.58,WeatherDisplay:10.37,2013-05-03 16:00:00,
2013-05-03 18:05:00,66.6,63.9,29.81,West,270,9.2,9.2,91,0.00,SCT,BKN,0.58,WeatherDisplay:10.37,2013-05-03 16:05:00,
2013-05-03 18:10:00,66.6,62.2,29.81,SW,225,10.4,10.4,86,0.00,SCT,BKN,0.58,WeatherDisplay:10.37,2013-05-03 16:10:00,
2013-05-03 18:15:00,66.6,60.9,29.81,SW,225,10.4,10.4,82,0.00,SCT,BKN,0.58,WeatherDisplay:10.37,2013-05-03 16:15:00,
2013-05-03 18:20:00,66.7,60.7,29.81,SW,225,8.3,8.3,81,0.00,SCT,BKN,0.58,WeatherDisplay:10.37,2013-05-03 16:20:00,
2013-05-03 18:25:00,67.3,60.9,29.81,West,270,10.4,10.4,80,0.00,SCT,BKN,0.58,WeatherDisplay:10.37,2013-05-03 16:25:00,
2013-05-03 18:30:00,67.6,60.9,29.81,SW,225,10.4,10.4,79,0.00,SCT,BKN,0.58,WeatherDisplay:10.37,2013-05-03 16:30:00,
2013-05-03 18:35:00,67.8,61.1,29.81,SW,225,8.1,8.1,79,0.00,SCT,BKN,0.58,WeatherDisplay:10.37,2013-05-03 16:35:00,
2013-05-03 18:40:00,67.6,60.5,29.81,West,270,6.9,6.9,78,0.00,SCT,BKN,0.58,WeatherDisplay:10.37,2013-05-03 16:40:00,
2013-05-03 18:45:00,67.6,60.5,29.81,West,270,6.9,6.9,78,0.00,SCT,BKN,0.58,WeatherDisplay:10.37,2013-05-03 16:45:00,
2013-05-03 18:50:00,67.5,60.4,29.81,West,270,11.5,11.5,78,0.00,FEW,BKN,0.58,WeatherDisplay:10.37,2013-05-03 16:50:00,
2013-05-03 18:55:00,67.3,59.5,29.81,West,270,10.4,10.4,76,0.00,FEW,BKN,0.58,WeatherDisplay:10.37,2013-05-03 16:55:00,
2013-05-03 19:00:00,67.1,59.6,29.81,West,270,6.9,6.9,77,0.00,FEW,BKN,0.58,WeatherDisplay:10.37,2013-05-03 17:00:00,
2013-05-03 19:05:00,66.9,59.8,29.81,NNW,338,10.4,10.4,78,0.00,FEW,BKN,0.58,WeatherDisplay:10.37,2013-05-03 17:05:00,
2013-05-03 19:10:00,66.7,59.3,29.81,West,270,12.7,12.7,77,0.00,FEW,BKN,0.58,WeatherDisplay:10.37,2013-05-03 17:10:00,
2013-05-03 19:15:00,66.4,58.6,29.81,WNW,292,10.4,10.4,76,0.00,FEW,BKN,0.58,WeatherDisplay:10.37,2013-05-03 17:15:00,
2013-05-03 19:20:00,66.2,57.7,29.82,SW,225,15.0,15.0,74,0.00,FEW,BKN,0.58,WeatherDisplay:10.37,2013-05-03 17:20:00,
2013-05-03 19:25:00,65.8,57.7,29.82,NW,315,10.4,10.4,75,0.00,FEW,BKN,0.58,WeatherDisplay:10.37,2013-05-03 17:25:00,
2013-05-03 19:30:00,65.5,57.3,29.82,SW,225,12.1,12.1,75,0.00,FEW,BKN,0.58,WeatherDisplay:10.37,2013-05-03 17:30:00,
2013-05-03 19:35:00,65.1,57.0,29.82,West,270,10.4,10.4,75,0.00,FEW,BKN,0.58,WeatherDisplay:10.37,2013-05-03 17:35:00,
2013-05-03 19:40:00,64.8,57.0,29.82,NW,315,6.9,6.9,76,0.00,FEW,BKN,0.58,WeatherDisplay:10.37,2013-05-03 17:40:00,
2013-05-03 19:45:00,64.6,56.8,29.82,West,270,5.8,5.8,76,0.00,FEW,BKN,0.58,WeatherDisplay:10.37,2013-05-03 17:45:00,
2013-05-03 19:50:00,64.2,57.2,29.83,NW,315,6.9,6.9,78,0.00,CLR,BKN,0.58,WeatherDisplay:10.37,2013-05-03 17:50:00,
2013-05-03 19:55:00,64.0,57.0,29.82,West,270,3.5,3.5,78,0.00,CLR,BKN,0.58,WeatherDisplay:10.37,2013-05-03 17:55:00,
2013-05-03 20:00:00,63.7,56.7,29.82,NW,315,2.3,2.3,78,0.00,CLR,BKN,0.58,WeatherDisplay:10.37,2013-05-03 18:00:00,
2013-05-03 20:05:00,63.3,56.7,29.83,WSW,248,2.3,2.3,79,0.00,CLR,BKN,0.58,WeatherDisplay:10.37,2013-05-03 18:05:00,
2013-05-03 20:10:00,63.0,56.3,29.83,NW,315,3.5,0.0,79,0.00,CLR,BKN,0.58,WeatherDisplay:10.37,2013-05-03 18:10:00,
2013-05-03 20:15:00,62.8,56.2,29.83,WNW,292,4.6,4.6,79,0.00,CLR,BKN,0.58,WeatherDisplay:10.37,2013-05-03 18:15:00,
2013-05-03 20:20:00,62.6,56.0,29.83,West,270,5.4,5.4,79,0.00,CLR,BKN,0.58,WeatherDisplay:10.37,2013-05-03 18:20:00,
2013-05-03 20:25:00,62.4,56.2,29.83,South,180,3.5,3.5,80,0.00,CLR,BKN,0.58,WeatherDisplay:10.37,2013-05-03 18:25:00,
2013-05-03 20:30:00,62.1,56.2,29.82,South,180,2.3,0.0,81,0.00,CLR,BKN,0.58,WeatherDisplay:10.37,2013-05-03 18:30:00,
2013-05-03 20:35:00,61.7,55.8,29.82,South,180,1.6,1.6,81,0.00,CLR,BKN,0.58,WeatherDisplay:10.37,2013-05-03 18:35:00,
2013-05-03 20:40:00,61.3,55.8,29.83,North,0,1.2,0.0,82,0.00,CLR,BKN,0.58,WeatherDisplay:10.37,2013-05-03 18:40:00,
2013-05-03 20:45:00,61.0,55.8,29.83,North,0,2.3,2.3,83,0.00,CLR,BKN,0.58,WeatherDisplay:10.37,2013-05-03 18:45:00,
2013-05-03 20:50:00,60.4,55.6,29.83,SW,225,3.5,0.0,84,0.00,CLR,BKN,0.58,WeatherDisplay:10.37,2013-05-03 18:50:00,
2013-05-03 20:55:00,60.1,55.6,29.84,SW,225,1.2,0.0,85,0.00,CLR,BKN,0.58,WeatherDisplay:10.37,2013-05-03 18:55:00,
2013-05-03 21:00:00,59.9,55.7,29.83,NW,315,1.2,0.0,86,0.00,CLR,BKN,0.58,WeatherDisplay:10.37,2013-05-03 19:00:00,
2013-05-03 21:05:00,59.7,55.8,29.84,South,180,1.6,1.6,87,0.00,CLR,BKN,0.58,WeatherDisplay:10.37,2013-05-03 19:05:00,
2013-05-03 21:10:00,59.5,56.0,29.84,SE,135,1.6,1.6,88,0.00,CLR,BKN,0.58,WeatherDisplay:10.37,2013-05-03 19:10:00,
2013-05-03 21:15:00,59.4,55.8,29.85,SE,135,2.3,2.3,88,0.00,CLR,BKN,0.58,WeatherDisplay:10.37,2013-05-03 19:15:00,
2013-05-03 21:20:00,59.2,55.9,29.85,West,270,3.5,3.5,89,0.00,CLR,BKN,0.58,WeatherDisplay:10.37,2013-05-03 19:20:00,
2013-05-03 21:25:00,59.0,55.8,29.85,NW,315,2.3,0.0,89,0.00,CLR,BKN,0.58,WeatherDisplay:10.37,2013-05-03 19:25:00,
2013-05-03 21:30:00,59.0,55.8,29.85,SE,135,1.2,0.0,89,0.00,CLR,BKN,0.58,WeatherDisplay:10.37,2013-05-03 19:30:00,
2013-05-03 21:35:00,59.0,55.8,29.85,NE,45,3.5,3.5,89,0.00,CLR,BKN,0.58,WeatherDisplay:10.37,2013-05-03 19:35:00,
2013-05-03 21:40:00,59.0,55.8,29.86,NE,45,3.5,0.0,89,0.00,CLR,BKN,0.58,WeatherDisplay:10.37,2013-05-03 19:40:00,
2013-05-03 21:45:00,58.8,55.9,29.86,East,90,2.3,2.3,90,0.00,CLR,BKN,0.58,WeatherDisplay:10.37,2013-05-03 19:45:00,
2013-05-03 21:50:00,58.8,56.2,29.86,NW,315,1.6,0.0,91,0.00,CLR,BKN,0.58,WeatherDisplay:10.37,2013-05-03 19:50:00,
2013-05-03 21:55:00,58.6,56.0,29.86,North,0,1.2,0.0,91,0.00,CLR,BKN,0.58,WeatherDisplay:10.37,2013-05-03 19:55:00,
2013-05-03 22:00:00,58.5,55.8,29.85,NW,315,2.3,2.3,91,0.00,CLR,BKN,0.58,WeatherDisplay:10.37,2013-05-03 20:00:00,
2013-05-03 22:05:00,58.5,55.8,29.85,NW,315,2.3,2.3,91,0.00,CLR,BKN,0.58,WeatherDisplay:10.37,2013-05-03 20:05:00,
2013-05-03 22:10:00,58.3,55.7,29.86,NW,315,1.6,1.6,91,0.00,CLR,BKN,0.58,WeatherDisplay:10.37,2013-05-03 20:10:00,
2013-05-03 22:15:00,58.1,55.5,29.86,West,270,2.3,2.3,91,0.00,CLR,BKN,0.58,WeatherDisplay:10.37,2013-05-03 20:15:00,
2013-05-03 22:20:00,58.1,55.8,29.85,SW,225,2.3,2.3,92,0.00,CLR,BKN,0.58,WeatherDisplay:10.37,2013-05-03 20:20:00,
2013-05-03 22:25:00,58.1,55.8,29.86,West,270,1.6,1.6,92,0.00,CLR,BKN,0.58,WeatherDisplay:10.37,2013-05-03 20:25:00,
2013-05-03 22:30:00,58.1,55.8,29.87,SW,225,2.3,2.3,92,0.00,CLR,BKN,0.58,WeatherDisplay:10.37,2013-05-03 20:30:00,
2013-05-03 22:35:00,58.1,55.8,29.86,WNW,292,2.3,2.3,92,0.00,CLR,BKN,0.58,WeatherDisplay:10.37,2013-05-03 20:35:00,
2013-05-03 22:40:00,57.9,55.6,29.87,SW,225,3.5,3.5,92,0.00,CLR,BKN,0.58,WeatherDisplay:10.37,2013-05-03 20:40:00,
2013-05-03 22:45:00,57.9,55.6,29.86,West,270,3.5,3.5,92,0.00,CLR,BKN,0.58,WeatherDisplay:10.37,2013-05-03 20:45:00,
2013-05-03 22:50:00,57.7,55.4,29.87,South,180,1.6,1.6,92,0.00,CLR,BKN,0.58,WeatherDisplay:10.37,2013-05-03 20:50:00,
2013-05-03 22:55:00,57.7,55.7,29.87,South,180,2.3,2.3,93,0.00,CLR,BKN,0.58,WeatherDisplay:10.37,2013-05-03 20:55:00,
2013-05-03 23:00:00,57.6,55.6,29.87,East,90,2.3,0.0,93,0.00,CLR,BKN,0.58,WeatherDisplay:10.37,2013-05-03 21:00:00,
2013-05-03 23:05:00,57.6,55.6,29.87,SE,135,1.6,1.6,93,0.00,CLR,BKN,0.58,WeatherDisplay:10.37,2013-05-03 21:05:00,
2013-05-03 23:10:00,57.4,55.4,29.87,East,90,2.2,2.2,93,0.00,CLR,BKN,0.58,WeatherDisplay:10.37,2013-05-03 21:10:00,
2013-05-03 23:15:00,57.4,55.4,29.87,NE,45,3.5,3.5,93,0.00,CLR,BKN,0.58,WeatherDisplay:10.37,2013-05-03 21:15:00,
2013-05-03 23:20:00,57.4,55.4,29.88,NW,315,9.2,9.2,93,0.00,CLR,BKN,0.58,WeatherDisplay:10.37,2013-05-03 21:20:00,
2013-05-03 23:25:00,57.7,55.4,29.88,North,0,5.4,5.4,92,0.00,CLR,BKN,0.58,WeatherDisplay:10.37,2013-05-03 21:25:00,
2013-05-03 23:30:00,57.7,55.4,29.88,NW,315,6.9,6.9,92,0.00,CLR,BKN,0.58,WeatherDisplay:10.37,2013-05-03 21:30:00,
2013-05-03 23:35:00,57.9,55.6,29.87,North,0,5.8,5.8,92,0.00,CLR,BKN,0.58,WeatherDisplay:10.37,2013-05-03 21:35:00,
2013-05-03 23:40:00,57.9,55.3,29.87,North,0,8.1,8.1,91,0.00,CLR,BKN,0.58,WeatherDisplay:10.37,2013-05-03 21:40:00,
2013-05-03 23:45:00,57.9,55.3,29.88,NW,315,6.9,6.9,91,0.00,CLR,BKN,0.58,WeatherDisplay:10.37,2013-05-03 21:45:00,
2013-05-03 23:50:00,57.9,55.3,29.88,WSW,248,5.8,5.8,91,0.00,CLR,BKN,0.58,WeatherDisplay:10.37,2013-05-03 21:50:00,
2013-05-03 23:55:00,57.9,55.3,29.88,SW,225,4.6,4.6,91,0.00,CLR,BKN,0.58,WeatherDisplay:10.37,2013-05-03 21:55:00,